PWSweather.com
Personal Weather Stations
Station Observations
ISTOCKPO4
Cheadle HulmeGB SK8 6NZ

Cheadle HulmeGB SK8 6NZ

Lat: 53.363783, Lon: -2.1948438

Elevation: 261

Station Type: Davis VP2 with Daytime FARS

http://www.cheadlehulmeweather.co.uk

High Low Average
Temperature 61.5°F16.4°C 44.1°F6.7°C 54.0°F12.2°C
Dew Point 52.6°F11.4°C 38.9°F3.8°C 45.9°F7.7°C
Winds 10.0 mph 16.1 kmh Calm Calm 6.0 mph E9.7 kmh E
Wind Gusts 17.0 mph27.4 kmh 3.0 mph4.8 kmh 11.0 mph17.7 kmh
Humidity 93% 54% 75%
Pressure 30.43 in1030.5 mb 30.25 in1024.4 mb -
Precipitation 0.00 in0.0 mm - -
Hour Temp Dew Point Humidity Winds Wind Gusts Pressure Precip Precip Rate Daily Precip Total
12:00 AM 54.0°F12.2°C 51.4°F10.8°C 91% 2.0 mph NW3.2 kmh NW 5.0 mph8.0 kmh 30.25 in1024.4 mb 0.00 in0.0 mm 0.00 in0.0 mm 0.00 in0.0 mm
12:15 AM 53.8°F12.1°C 51.5°F10.8°C 92% 1.0 mph W1.6 kmh W 4.0 mph6.4 kmh 30.25 in1024.4 mb 0.00 in0.0 mm 0.00 in0.0 mm 0.00 in0.0 mm
12:30 AM 53.8°F12.1°C 51.5°F10.8°C 92% Calm Calm 3.0 mph4.8 kmh 30.26 in1024.7 mb 0.00 in0.0 mm 0.00 in0.0 mm 0.00 in0.0 mm
12:45 AM 53.8°F12.1°C 51.5°F10.8°C 92% 2.0 mph WNW3.2 kmh WNW 5.0 mph8.0 kmh 30.26 in1024.7 mb 0.00 in0.0 mm 0.00 in0.0 mm 0.00 in0.0 mm
01:00 AM 54.1°F12.3°C 52.2°F11.2°C 93% 3.0 mph NW4.8 kmh NW 5.0 mph8.0 kmh 30.26 in1024.7 mb 0.00 in0.0 mm 0.00 in0.0 mm 0.00 in0.0 mm
01:15 AM 54.1°F12.3°C 51.9°F11.1°C 92% 2.0 mph NW3.2 kmh NW 4.0 mph6.4 kmh 30.26 in1024.7 mb 0.00 in0.0 mm 0.00 in0.0 mm 0.00 in0.0 mm
01:30 AM 54.3°F12.4°C 52.0°F11.1°C 92% 2.0 mph WNW3.2 kmh WNW 5.0 mph8.0 kmh 30.26 in1024.7 mb 0.00 in0.0 mm 0.00 in0.0 mm 0.00 in0.0 mm
01:45 AM 54.5°F12.5°C 52.5°F11.4°C 93% 3.0 mph NW4.8 kmh NW 5.0 mph8.0 kmh 30.27 in1025.1 mb 0.00 in0.0 mm 0.00 in0.0 mm 0.00 in0.0 mm
02:00 AM 54.9°F12.7°C 52.6°F11.4°C 92% 4.0 mph WNW6.4 kmh WNW 8.0 mph12.9 kmh 30.27 in1025.1 mb 0.00 in0.0 mm 0.00 in0.0 mm 0.00 in0.0 mm
02:15 AM 54.3°F12.4°C 51.7°F10.9°C 91% 5.0 mph WNW8.0 kmh WNW 10.0 mph16.1 kmh 30.27 in1025.1 mb 0.00 in0.0 mm 0.00 in0.0 mm 0.00 in0.0 mm
02:30 AM 54.0°F12.2°C 51.1°F10.6°C 90% 4.0 mph NW6.4 kmh NW 9.0 mph14.5 kmh 30.27 in1025.1 mb 0.00 in0.0 mm 0.00 in0.0 mm 0.00 in0.0 mm
02:45 AM 53.4°F11.9°C 50.6°F10.3°C 90% 3.0 mph NW4.8 kmh NW 5.0 mph8.0 kmh 30.28 in1025.4 mb 0.00 in0.0 mm 0.00 in0.0 mm 0.00 in0.0 mm
03:00 AM 53.2°F11.8°C 50.4°F10.2°C 90% 4.0 mph NW6.4 kmh NW 9.0 mph14.5 kmh 30.27 in1025.1 mb 0.00 in0.0 mm 0.00 in0.0 mm 0.00 in0.0 mm
03:15 AM 53.2°F11.8°C 50.4°F10.2°C 90% 4.0 mph WNW6.4 kmh WNW 8.0 mph12.9 kmh 30.27 in1025.1 mb 0.00 in0.0 mm 0.00 in0.0 mm 0.00 in0.0 mm
03:30 AM 53.2°F11.8°C 50.4°F10.2°C 90% 3.0 mph WNW4.8 kmh WNW 7.0 mph11.3 kmh 30.27 in1025.1 mb 0.00 in0.0 mm 0.00 in0.0 mm 0.00 in0.0 mm
03:45 AM 53.2°F11.8°C 50.4°F10.2°C 90% 3.0 mph WNW4.8 kmh WNW 8.0 mph12.9 kmh 30.28 in1025.4 mb 0.00 in0.0 mm 0.00 in0.0 mm 0.00 in0.0 mm
04:00 AM 53.2°F11.8°C 50.4°F10.2°C 90% 3.0 mph NW4.8 kmh NW 6.0 mph9.7 kmh 30.28 in1025.4 mb 0.00 in0.0 mm 0.00 in0.0 mm 0.00 in0.0 mm
04:15 AM 53.2°F11.8°C 50.7°F10.4°C 91% 2.0 mph N3.2 kmh N 6.0 mph9.7 kmh 30.30 in1026.1 mb 0.00 in0.0 mm 0.00 in0.0 mm 0.00 in0.0 mm
04:30 AM 52.9°F11.6°C 50.3°F10.2°C 91% 6.0 mph NE9.7 kmh NE 13.0 mph20.9 kmh 30.30 in1026.1 mb 0.00 in0.0 mm 0.00 in0.0 mm 0.00 in0.0 mm
04:45 AM 52.9°F11.6°C 50.0°F10.0°C 90% 6.0 mph NE9.7 kmh NE 13.0 mph20.9 kmh 30.30 in1026.1 mb 0.00 in0.0 mm 0.00 in0.0 mm 0.00 in0.0 mm
05:00 AM 52.5°F11.4°C 49.4°F9.7°C 89% 8.0 mph NE12.9 kmh NE 13.0 mph20.9 kmh 30.30 in1026.1 mb 0.00 in0.0 mm 0.00 in0.0 mm 0.00 in0.0 mm
05:15 AM 52.3°F11.3°C 48.9°F9.4°C 88% 9.0 mph NE14.5 kmh NE 15.0 mph24.1 kmh 30.30 in1026.1 mb 0.00 in0.0 mm 0.00 in0.0 mm 0.00 in0.0 mm
05:30 AM 52.3°F11.3°C 48.9°F9.4°C 88% 5.0 mph NE8.0 kmh NE 9.0 mph14.5 kmh 30.31 in1026.4 mb 0.00 in0.0 mm 0.00 in0.0 mm 0.00 in0.0 mm
05:45 AM 52.2°F11.2°C 48.1°F8.9°C 86% 7.0 mph NE11.3 kmh NE 12.0 mph19.3 kmh 30.31 in1026.4 mb 0.00 in0.0 mm 0.00 in0.0 mm 0.00 in0.0 mm
06:00 AM 52.2°F11.2°C 48.1°F8.9°C 86% 4.0 mph ENE6.4 kmh ENE 9.0 mph14.5 kmh 30.32 in1026.8 mb 0.00 in0.0 mm 0.00 in0.0 mm 0.00 in0.0 mm
06:15 AM 52.2°F11.2°C 47.8°F8.8°C 85% 5.0 mph NE8.0 kmh NE 11.0 mph17.7 kmh 30.32 in1026.8 mb 0.00 in0.0 mm 0.00 in0.0 mm 0.00 in0.0 mm
06:30 AM 52.2°F11.2°C 47.5°F8.6°C 84% 5.0 mph NNE8.0 kmh NNE 10.0 mph16.1 kmh 30.33 in1027.1 mb 0.00 in0.0 mm 0.00 in0.0 mm 0.00 in0.0 mm
06:45 AM 52.3°F11.3°C 47.6°F8.7°C 84% 5.0 mph NNE8.0 kmh NNE 11.0 mph17.7 kmh 30.33 in1027.1 mb 0.00 in0.0 mm 0.00 in0.0 mm 0.00 in0.0 mm
07:00 AM 52.5°F11.4°C 47.8°F8.8°C 84% 3.0 mph NE4.8 kmh NE 8.0 mph12.9 kmh 30.34 in1027.4 mb 0.00 in0.0 mm 0.00 in0.0 mm 0.00 in0.0 mm
07:15 AM 52.7°F11.5°C 47.4°F8.6°C 82% 7.0 mph NNE11.3 kmh NNE 13.0 mph20.9 kmh 30.34 in1027.4 mb 0.00 in0.0 mm 0.00 in0.0 mm 0.00 in0.0 mm
07:30 AM 52.5°F11.4°C 46.9°F8.3°C 81% 9.0 mph NE14.5 kmh NE 17.0 mph27.4 kmh 30.35 in1027.8 mb 0.00 in0.0 mm 0.00 in0.0 mm 0.00 in0.0 mm
07:45 AM 52.5°F11.4°C 47.2°F8.4°C 82% 7.0 mph NE11.3 kmh NE 14.0 mph22.5 kmh 30.36 in1028.1 mb 0.00 in0.0 mm 0.00 in0.0 mm 0.00 in0.0 mm
08:00 AM 52.3°F11.3°C 47.0°F8.3°C 82% 8.0 mph NE12.9 kmh NE 13.0 mph20.9 kmh 30.36 in1028.1 mb 0.00 in0.0 mm 0.00 in0.0 mm 0.00 in0.0 mm
08:15 AM 52.2°F11.2°C 46.8°F8.2°C 82% 8.0 mph NE12.9 kmh NE 13.0 mph20.9 kmh 30.36 in1028.1 mb 0.00 in0.0 mm 0.00 in0.0 mm 0.00 in0.0 mm
08:30 AM 52.5°F11.4°C 45.5°F7.5°C 77% 7.0 mph NE11.3 kmh NE 14.0 mph22.5 kmh 30.36 in1028.1 mb 0.00 in0.0 mm 0.00 in0.0 mm 0.00 in0.0 mm
08:45 AM 53.2°F11.8°C 45.9°F7.7°C 76% 8.0 mph NE12.9 kmh NE 16.0 mph25.7 kmh 30.37 in1028.4 mb 0.00 in0.0 mm 0.00 in0.0 mm 0.00 in0.0 mm
09:00 AM 54.7°F12.6°C 45.8°F7.7°C 72% 9.0 mph NE14.5 kmh NE 16.0 mph25.7 kmh 30.37 in1028.4 mb 0.00 in0.0 mm 0.00 in0.0 mm 0.00 in0.0 mm
09:15 AM 54.5°F12.5°C 45.7°F7.6°C 72% 10.0 mph NE16.1 kmh NE 16.0 mph25.7 kmh 30.38 in1028.8 mb 0.00 in0.0 mm 0.00 in0.0 mm 0.00 in0.0 mm
09:30 AM 54.1°F12.3°C 45.7°F7.6°C 73% 9.0 mph NE14.5 kmh NE 17.0 mph27.4 kmh 30.38 in1028.8 mb 0.00 in0.0 mm 0.00 in0.0 mm 0.00 in0.0 mm
09:45 AM 54.0°F12.2°C 46.2°F7.9°C 75% 7.0 mph NNE11.3 kmh NNE 14.0 mph22.5 kmh 30.39 in1029.1 mb 0.00 in0.0 mm 0.00 in0.0 mm 0.00 in0.0 mm
10:00 AM 53.8°F12.1°C 46.0°F7.8°C 75% 9.0 mph NE14.5 kmh NE 16.0 mph25.7 kmh 30.40 in1029.5 mb 0.00 in0.0 mm 0.00 in0.0 mm 0.00 in0.0 mm
10:15 AM 54.0°F12.2°C 46.2°F7.9°C 75% 7.0 mph NE11.3 kmh NE 14.0 mph22.5 kmh 30.40 in1029.5 mb 0.00 in0.0 mm 0.00 in0.0 mm 0.00 in0.0 mm
10:30 AM 54.1°F12.3°C 46.0°F7.8°C 74% 6.0 mph NE9.7 kmh NE 12.0 mph19.3 kmh 30.40 in1029.5 mb 0.00 in0.0 mm 0.00 in0.0 mm 0.00 in0.0 mm
10:45 AM 54.1°F12.3°C 45.7°F7.6°C 73% 8.0 mph NE12.9 kmh NE 13.0 mph20.9 kmh 30.41 in1029.8 mb 0.00 in0.0 mm 0.00 in0.0 mm 0.00 in0.0 mm
11:00 AM 54.9°F12.7°C 46.7°F8.2°C 74% 8.0 mph NE12.9 kmh NE 13.0 mph20.9 kmh 30.41 in1029.8 mb 0.00 in0.0 mm 0.00 in0.0 mm 0.00 in0.0 mm
11:15 AM 55.8°F13.2°C 47.2°F8.4°C 73% 7.0 mph NE11.3 kmh NE 14.0 mph22.5 kmh 30.41 in1029.8 mb 0.00 in0.0 mm 0.00 in0.0 mm 0.00 in0.0 mm
11:30 AM 55.4°F13.0°C 46.5°F8.1°C 72% 9.0 mph NE14.5 kmh NE 17.0 mph27.4 kmh 30.41 in1029.8 mb 0.00 in0.0 mm 0.00 in0.0 mm 0.00 in0.0 mm
11:45 AM 54.7°F12.6°C 46.2°F7.9°C 73% 9.0 mph ENE14.5 kmh ENE 17.0 mph27.4 kmh 30.41 in1029.8 mb 0.00 in0.0 mm 0.00 in0.0 mm 0.00 in0.0 mm
12:00 PM 54.5°F12.5°C 46.4°F8.0°C 74% 9.0 mph NE14.5 kmh NE 17.0 mph27.4 kmh 30.41 in1029.8 mb 0.00 in0.0 mm 0.00 in0.0 mm 0.00 in0.0 mm
12:15 PM 55.0°F12.8°C 46.9°F8.3°C 74% 5.0 mph NE8.0 kmh NE 11.0 mph17.7 kmh 30.41 in1029.8 mb 0.00 in0.0 mm 0.00 in0.0 mm 0.00 in0.0 mm
12:30 PM 55.8°F13.2°C 46.9°F8.3°C 72% 6.0 mph ENE9.7 kmh ENE 13.0 mph20.9 kmh 30.41 in1029.8 mb 0.00 in0.0 mm 0.00 in0.0 mm 0.00 in0.0 mm
12:45 PM 56.7°F13.7°C 47.7°F8.7°C 72% 5.0 mph NE8.0 kmh NE 10.0 mph16.1 kmh 30.41 in1029.8 mb 0.00 in0.0 mm 0.00 in0.0 mm 0.00 in0.0 mm
01:00 PM 57.4°F14.1°C 46.9°F8.3°C 68% 6.0 mph NE9.7 kmh NE 12.0 mph19.3 kmh 30.40 in1029.5 mb 0.00 in0.0 mm 0.00 in0.0 mm 0.00 in0.0 mm
01:15 PM 58.8°F14.9°C 47.1°F8.4°C 65% 5.0 mph NE8.0 kmh NE 11.0 mph17.7 kmh 30.40 in1029.5 mb 0.00 in0.0 mm 0.00 in0.0 mm 0.00 in0.0 mm
01:30 PM 59.2°F15.1°C 46.6°F8.1°C 63% 7.0 mph NE11.3 kmh NE 13.0 mph20.9 kmh 30.40 in1029.5 mb 0.00 in0.0 mm 0.00 in0.0 mm 0.00 in0.0 mm
01:45 PM 60.3°F15.7°C 47.2°F8.4°C 62% 7.0 mph NNE11.3 kmh NNE 14.0 mph22.5 kmh 30.40 in1029.5 mb 0.00 in0.0 mm 0.00 in0.0 mm 0.00 in0.0 mm
02:00 PM 60.4°F15.8°C 47.4°F8.6°C 62% 8.0 mph NE12.9 kmh NE 14.0 mph22.5 kmh 30.40 in1029.5 mb 0.00 in0.0 mm 0.00 in0.0 mm 0.00 in0.0 mm
02:15 PM 59.7°F15.4°C 45.4°F7.4°C 59% 8.0 mph NE12.9 kmh NE 14.0 mph22.5 kmh 30.40 in1029.5 mb 0.00 in0.0 mm 0.00 in0.0 mm 0.00 in0.0 mm
02:30 PM 60.1°F15.6°C 45.7°F7.6°C 59% 7.0 mph NE11.3 kmh NE 14.0 mph22.5 kmh 30.40 in1029.5 mb 0.00 in0.0 mm 0.00 in0.0 mm 0.00 in0.0 mm
02:45 PM 60.4°F15.8°C 45.1°F7.3°C 57% 7.0 mph ENE11.3 kmh ENE 12.0 mph19.3 kmh 30.40 in1029.5 mb 0.00 in0.0 mm 0.00 in0.0 mm 0.00 in0.0 mm
03:00 PM 60.6°F15.9°C 45.8°F7.7°C 58% 6.0 mph NE9.7 kmh NE 14.0 mph22.5 kmh 30.40 in1029.5 mb 0.00 in0.0 mm 0.00 in0.0 mm 0.00 in0.0 mm
03:15 PM 61.0°F16.1°C 46.1°F7.8°C 58% 6.0 mph ENE9.7 kmh ENE 13.0 mph20.9 kmh 30.40 in1029.5 mb 0.00 in0.0 mm 0.00 in0.0 mm 0.00 in0.0 mm
03:30 PM 61.2°F16.2°C 46.7°F8.2°C 59% 7.0 mph NE11.3 kmh NE 13.0 mph20.9 kmh 30.40 in1029.5 mb 0.00 in0.0 mm 0.00 in0.0 mm 0.00 in0.0 mm
03:45 PM 60.6°F15.9°C 45.8°F7.7°C 58% 9.0 mph NE14.5 kmh NE 15.0 mph24.1 kmh 30.40 in1029.5 mb 0.00 in0.0 mm 0.00 in0.0 mm 0.00 in0.0 mm
04:00 PM 61.5°F16.4°C 45.7°F7.6°C 56% 7.0 mph NE11.3 kmh NE 16.0 mph25.7 kmh 30.40 in1029.5 mb 0.00 in0.0 mm 0.00 in0.0 mm 0.00 in0.0 mm
04:15 PM 60.6°F15.9°C 45.3°F7.4°C 57% 7.0 mph NE11.3 kmh NE 14.0 mph22.5 kmh 30.39 in1029.1 mb 0.00 in0.0 mm 0.00 in0.0 mm 0.00 in0.0 mm
04:30 PM 61.5°F16.4°C 44.7°F7.1°C 54% 9.0 mph NE14.5 kmh NE 16.0 mph25.7 kmh 30.40 in1029.5 mb 0.00 in0.0 mm 0.00 in0.0 mm 0.00 in0.0 mm
04:45 PM 60.8°F16.0°C 44.5°F6.9°C 55% 8.0 mph NNE12.9 kmh NNE 15.0 mph24.1 kmh 30.39 in1029.1 mb 0.00 in0.0 mm 0.00 in0.0 mm 0.00 in0.0 mm
05:00 PM 60.3°F15.7°C 45.0°F7.2°C 57% 7.0 mph NE11.3 kmh NE 13.0 mph20.9 kmh 30.40 in1029.5 mb 0.00 in0.0 mm 0.00 in0.0 mm 0.00 in0.0 mm
05:15 PM 59.7°F15.4°C 43.5°F6.4°C 55% 8.0 mph NE12.9 kmh NE 17.0 mph27.4 kmh 30.40 in1029.5 mb 0.00 in0.0 mm 0.00 in0.0 mm 0.00 in0.0 mm
05:30 PM 59.0°F15.0°C 42.8°F6.0°C 55% 8.0 mph NE12.9 kmh NE 16.0 mph25.7 kmh 30.40 in1029.5 mb 0.00 in0.0 mm 0.00 in0.0 mm 0.00 in0.0 mm
05:45 PM 58.3°F14.6°C 43.1°F6.2°C 57% 8.0 mph NE12.9 kmh NE 15.0 mph24.1 kmh 30.41 in1029.8 mb 0.00 in0.0 mm 0.00 in0.0 mm 0.00 in0.0 mm
06:00 PM 57.6°F14.2°C 42.0°F5.6°C 56% 8.0 mph NE12.9 kmh NE 14.0 mph22.5 kmh 30.41 in1029.8 mb 0.00 in0.0 mm 0.00 in0.0 mm 0.00 in0.0 mm
06:15 PM 56.7°F13.7°C 42.0°F5.6°C 58% 8.0 mph NE12.9 kmh NE 17.0 mph27.4 kmh 30.41 in1029.8 mb 0.00 in0.0 mm 0.00 in0.0 mm 0.00 in0.0 mm
06:30 PM 55.8°F13.2°C 41.6°F5.3°C 59% 9.0 mph NE14.5 kmh NE 16.0 mph25.7 kmh 30.41 in1029.8 mb 0.00 in0.0 mm 0.00 in0.0 mm 0.00 in0.0 mm
06:45 PM 54.7°F12.6°C 41.5°F5.3°C 61% 8.0 mph NE12.9 kmh NE 14.0 mph22.5 kmh 30.41 in1029.8 mb 0.00 in0.0 mm 0.00 in0.0 mm 0.00 in0.0 mm
07:00 PM 53.8°F12.1°C 41.1°F5.1°C 62% 8.0 mph NE12.9 kmh NE 15.0 mph24.1 kmh 30.41 in1029.8 mb 0.00 in0.0 mm 0.00 in0.0 mm 0.00 in0.0 mm
07:15 PM 53.2°F11.8°C 40.5°F4.7°C 62% 7.0 mph NE11.3 kmh NE 13.0 mph20.9 kmh 30.41 in1029.8 mb 0.00 in0.0 mm 0.00 in0.0 mm 0.00 in0.0 mm
07:30 PM 52.5°F11.4°C 40.7°F4.8°C 64% 7.0 mph NE11.3 kmh NE 11.0 mph17.7 kmh 30.41 in1029.8 mb 0.00 in0.0 mm 0.00 in0.0 mm 0.00 in0.0 mm
07:45 PM 52.0°F11.1°C 41.4°F5.2°C 67% 6.0 mph NE9.7 kmh NE 11.0 mph17.7 kmh 30.41 in1029.8 mb 0.00 in0.0 mm 0.00 in0.0 mm 0.00 in0.0 mm
08:00 PM 51.3°F10.7°C 40.7°F4.8°C 67% 6.0 mph NE9.7 kmh NE 11.0 mph17.7 kmh 30.41 in1029.8 mb 0.00 in0.0 mm 0.00 in0.0 mm 0.00 in0.0 mm
08:15 PM 50.5°F10.3°C 40.4°F4.7°C 68% 4.0 mph NE6.4 kmh NE 9.0 mph14.5 kmh 30.42 in1030.1 mb 0.00 in0.0 mm 0.00 in0.0 mm 0.00 in0.0 mm
08:30 PM 49.8°F9.9°C 40.4°F4.7°C 70% 6.0 mph NE9.7 kmh NE 11.0 mph17.7 kmh 30.42 in1030.1 mb 0.00 in0.0 mm 0.00 in0.0 mm 0.00 in0.0 mm
08:45 PM 49.3°F9.6°C 40.3°F4.6°C 71% 6.0 mph NE9.7 kmh NE 11.0 mph17.7 kmh 30.42 in1030.1 mb 0.00 in0.0 mm 0.00 in0.0 mm 0.00 in0.0 mm
09:00 PM 48.7°F9.3°C 40.1°F4.5°C 72% 6.0 mph NE9.7 kmh NE 11.0 mph17.7 kmh 30.42 in1030.1 mb 0.00 in0.0 mm 0.00 in0.0 mm 0.00 in0.0 mm
09:15 PM 48.4°F9.1°C 40.1°F4.5°C 73% 5.0 mph NE8.0 kmh NE 10.0 mph16.1 kmh 30.42 in1030.1 mb 0.00 in0.0 mm 0.00 in0.0 mm 0.00 in0.0 mm
09:30 PM 47.7°F8.7°C 39.8°F4.3°C 74% 4.0 mph NE6.4 kmh NE 8.0 mph12.9 kmh 30.42 in1030.1 mb 0.00 in0.0 mm 0.00 in0.0 mm 0.00 in0.0 mm
09:45 PM 47.3°F8.5°C 39.8°F4.3°C 75% 4.0 mph NE6.4 kmh NE 8.0 mph12.9 kmh 30.43 in1030.5 mb 0.00 in0.0 mm 0.00 in0.0 mm 0.00 in0.0 mm
10:00 PM 46.8°F8.2°C 39.6°F4.2°C 76% 3.0 mph NE4.8 kmh NE 6.0 mph9.7 kmh 30.43 in1030.5 mb 0.00 in0.0 mm 0.00 in0.0 mm 0.00 in0.0 mm
10:15 PM 46.2°F7.9°C 39.4°F4.1°C 77% 3.0 mph NE4.8 kmh NE 6.0 mph9.7 kmh 30.43 in1030.5 mb 0.00 in0.0 mm 0.00 in0.0 mm 0.00 in0.0 mm
10:30 PM 45.9°F7.7°C 39.4°F4.1°C 78% 2.0 mph NE3.2 kmh NE 4.0 mph6.4 kmh 30.43 in1030.5 mb 0.00 in0.0 mm 0.00 in0.0 mm 0.00 in0.0 mm
10:45 PM 45.1°F7.3°C 39.0°F3.9°C 79% 2.0 mph NE3.2 kmh NE 6.0 mph9.7 kmh 30.43 in1030.5 mb 0.00 in0.0 mm 0.00 in0.0 mm 0.00 in0.0 mm
11:00 PM 44.8°F7.1°C 39.0°F3.9°C 80% 3.0 mph NE4.8 kmh NE 7.0 mph11.3 kmh 30.43 in1030.5 mb 0.00 in0.0 mm 0.00 in0.0 mm 0.00 in0.0 mm
11:15 PM 44.6°F7.0°C 39.1°F3.9°C 81% 3.0 mph NE4.8 kmh NE 8.0 mph12.9 kmh 30.43 in1030.5 mb 0.00 in0.0 mm 0.00 in0.0 mm 0.00 in0.0 mm
11:30 PM 44.4°F6.9°C 39.0°F3.9°C 81% 4.0 mph NNE6.4 kmh NNE 7.0 mph11.3 kmh 30.43 in1030.5 mb 0.00 in0.0 mm 0.00 in0.0 mm 0.00 in0.0 mm
11:45 PM 44.1°F6.7°C 38.9°F3.8°C 82% 3.0 mph NE4.8 kmh NE 8.0 mph12.9 kmh 30.43 in1030.5 mb 0.00 in0.0 mm 0.00 in0.0 mm 0.00 in0.0 mm